Terminal Aerodrome Forecast
Issued by NWS Duluth, MN

Home | Current Version | Previous Version | Text Only | Print | Product List | Glossary On
Versions: 1 2 3 4 5 6 7 8 9 10 11 12 13 14 15 16 17 18
000
FTUS43 KDLH 280058 AAA
TAFDLH
TAF AMD
KDLH 280058Z 2801/2824 25009KT P6SM SCT080
     FM280200 24005KT P6SM VCSH SCT070 BKN150
     FM281200 27008KT 6SM -SHRA BR BKN040 BKN090
     FM281700 29011KT P6SM VCSH BKN035
     FM281900 29012G18KT P6SM VCSH BKN040=

USA.gov is the U.S. government's official web portal to all federal, state and local government web resources and services.